sensor_id;sensor_type;location;lat;lon;timestamp;temperature;humidity
58582;DHT22;44361;51.476;5.700;2024-01-30T00:00:07;7.30;99.90
58582;DHT22;44361;51.476;5.700;2024-01-30T00:02:33;7.20;99.90
58582;DHT22;44361;51.476;5.700;2024-01-30T00:04:59;7.20;99.90
58582;DHT22;44361;51.476;5.700;2024-01-30T00:07:24;7.20;99.90
58582;DHT22;44361;51.476;5.700;2024-01-30T00:09:50;7.10;99.90
58582;DHT22;44361;51.476;5.700;2024-01-30T00:12:16;7.10;99.90
58582;DHT22;44361;51.476;5.700;2024-01-30T00:14:42;7.10;99.90
58582;DHT22;44361;51.476;5.700;2024-01-30T00:17:09;7.10;99.90
58582;DHT22;44361;51.476;5.700;2024-01-30T00:19:34;7.10;99.90
58582;DHT22;44361;51.476;5.700;2024-01-30T00:22:00;7.10;99.90
58582;DHT22;44361;51.476;5.700;2024-01-30T00:24:25;7.10;99.90
58582;DHT22;44361;51.476;5.700;2024-01-30T00:26:51;7.10;99.90
58582;DHT22;44361;51.476;5.700;2024-01-30T00:29:17;7.00;99.90
58582;DHT22;44361;51.476;5.700;2024-01-30T00:31:45;7.00;99.90
58582;DHT22;44361;51.476;5.700;2024-01-30T00:34:11;7.00;99.90
58582;DHT22;44361;51.476;5.700;2024-01-30T00:36:37;7.00;99.90
58582;DHT22;44361;51.476;5.700;2024-01-30T00:39:02;6.90;99.90
58582;DHT22;44361;51.476;5.700;2024-01-30T00:41:31;6.90;99.90
58582;DHT22;44361;51.476;5.700;2024-01-30T00:43:57;7.00;99.90
58582;DHT22;44361;51.476;5.700;2024-01-30T00:46:23;7.00;99.90
58582;DHT22;44361;51.476;5.700;2024-01-30T00:48:48;6.90;99.90
58582;DHT22;44361;51.476;5.700;2024-01-30T00:51:14;6.90;99.90
58582;DHT22;44361;51.476;5.700;2024-01-30T00:53:40;6.90;99.90
58582;DHT22;44361;51.476;5.700;2024-01-30T00:56:07;6.80;99.90
58582;DHT22;44361;51.476;5.700;2024-01-30T00:58:33;6.80;99.90
58582;DHT22;44361;51.476;5.700;2024-01-30T01:00:58;6.80;99.90
58582;DHT22;44361;51.476;5.700;2024-01-30T01:03:24;6.80;99.90
58582;DHT22;44361;51.476;5.700;2024-01-30T01:05:50;6.70;99.90
58582;DHT22;44361;51.476;5.700;2024-01-30T01:08:15;6.70;99.90
58582;DHT22;44361;51.476;5.700;2024-01-30T01:10:41;6.70;99.90
58582;DHT22;44361;51.476;5.700;2024-01-30T01:13:06;6.70;99.90
58582;DHT22;44361;51.476;5.700;2024-01-30T01:15:32;6.70;99.90
58582;DHT22;44361;51.476;5.700;2024-01-30T01:17:57;6.80;99.90
58582;DHT22;44361;51.476;5.700;2024-01-30T01:20:23;6.80;99.90
58582;DHT22;44361;51.476;5.700;2024-01-30T01:22:49;6.80;99.90
58582;DHT22;44361;51.476;5.700;2024-01-30T01:25:14;6.70;99.90
58582;DHT22;44361;51.476;5.700;2024-01-30T01:27:40;6.70;99.90
58582;DHT22;44361;51.476;5.700;2024-01-30T01:30:10;6.70;99.90
58582;DHT22;44361;51.476;5.700;2024-01-30T01:32:37;6.70;99.90
58582;DHT22;44361;51.476;5.700;2024-01-30T01:35:04;6.70;99.90
58582;DHT22;44361;51.476;5.700;2024-01-30T01:37:31;6.70;99.90
58582;DHT22;44361;51.476;5.700;2024-01-30T01:39:56;6.60;99.90
58582;DHT22;44361;51.476;5.700;2024-01-30T01:42:22;6.60;99.90
58582;DHT22;44361;51.476;5.700;2024-01-30T01:44:47;6.60;99.90
58582;DHT22;44361;51.476;5.700;2024-01-30T01:47:14;6.60;99.90
58582;DHT22;44361;51.476;5.700;2024-01-30T01:49:39;6.60;99.90
58582;DHT22;44361;51.476;5.700;2024-01-30T01:52:06;6.60;99.90
58582;DHT22;44361;51.476;5.700;2024-01-30T01:54:32;6.70;99.90
58582;DHT22;44361;51.476;5.700;2024-01-30T01:56:59;6.60;99.90
58582;DHT22;44361;51.476;5.700;2024-01-30T01:59:25;6.70;99.90
58582;DHT22;44361;51.476;5.700;2024-01-30T02:01:51;6.70;99.90
58582;DHT22;44361;51.476;5.700;2024-01-30T02:04:18;6.70;99.90
58582;DHT22;44361;51.476;5.700;2024-01-30T02:06:44;6.70;99.90
58582;DHT22;44361;51.476;5.700;2024-01-30T02:09:09;6.70;99.90
58582;DHT22;44361;51.476;5.700;2024-01-30T02:11:35;6.70;99.90
58582;DHT22;44361;51.476;5.700;2024-01-30T02:14:04;6.70;99.90
58582;DHT22;44361;51.476;5.700;2024-01-30T02:16:31;6.80;99.90
58582;DHT22;44361;51.476;5.700;2024-01-30T02:18:56;6.70;99.90
58582;DHT22;44361;51.476;5.700;2024-01-30T02:21:22;6.70;99.90
58582;DHT22;44361;51.476;5.700;2024-01-30T02:23:48;6.70;99.90
58582;DHT22;44361;51.476;5.700;2024-01-30T02:26:15;6.70;99.90
58582;DHT22;44361;51.476;5.700;2024-01-30T02:28:40;6.70;99.90
58582;DHT22;44361;51.476;5.700;2024-01-30T02:31:06;6.70;99.90
58582;DHT22;44361;51.476;5.700;2024-01-30T02:33:31;6.60;99.90
58582;DHT22;44361;51.476;5.700;2024-01-30T02:35:57;6.60;99.90
58582;DHT22;44361;51.476;5.700;2024-01-30T02:38:23;6.60;99.90
58582;DHT22;44361;51.476;5.700;2024-01-30T02:40:49;6.60;99.90
58582;DHT22;44361;51.476;5.700;2024-01-30T02:43:15;6.50;99.90
58582;DHT22;44361;51.476;5.700;2024-01-30T02:45:41;6.60;99.90
58582;DHT22;44361;51.476;5.700;2024-01-30T02:48:07;6.60;99.90
58582;DHT22;44361;51.476;5.700;2024-01-30T02:50:32;6.50;99.90
58582;DHT22;44361;51.476;5.700;2024-01-30T02:52:58;6.50;99.90
58582;DHT22;44361;51.476;5.700;2024-01-30T02:55:23;6.50;99.90
58582;DHT22;44361;51.476;5.700;2024-01-30T02:57:49;6.50;99.90
58582;DHT22;44361;51.476;5.700;2024-01-30T03:00:15;6.60;99.90
58582;DHT22;44361;51.476;5.700;2024-01-30T03:02:40;6.50;99.90
58582;DHT22;44361;51.476;5.700;2024-01-30T03:05:08;6.60;99.90
58582;DHT22;44361;51.476;5.700;2024-01-30T03:07:34;6.50;99.90
58582;DHT22;44361;51.476;5.700;2024-01-30T03:09:59;6.60;99.90
58582;DHT22;44361;51.476;5.700;2024-01-30T03:12:25;6.60;99.90
58582;DHT22;44361;51.476;5.700;2024-01-30T03:14:50;6.70;99.90
58582;DHT22;44361;51.476;5.700;2024-01-30T03:17:16;6.70;99.90
58582;DHT22;44361;51.476;5.700;2024-01-30T03:19:41;6.70;99.90
58582;DHT22;44361;51.476;5.700;2024-01-30T03:22:07;6.70;99.90
58582;DHT22;44361;51.476;5.700;2024-01-30T03:24:33;6.70;99.90
58582;DHT22;44361;51.476;5.700;2024-01-30T03:26:58;6.80;99.90
58582;DHT22;44361;51.476;5.700;2024-01-30T03:29:24;6.80;99.90
58582;DHT22;44361;51.476;5.700;2024-01-30T03:31:49;6.80;99.90
58582;DHT22;44361;51.476;5.700;2024-01-30T03:34:15;6.80;99.90
58582;DHT22;44361;51.476;5.700;2024-01-30T03:36:40;6.80;99.90
58582;DHT22;44361;51.476;5.700;2024-01-30T03:39:06;6.70;99.90
58582;DHT22;44361;51.476;5.700;2024-01-30T03:41:32;6.80;99.90
58582;DHT22;44361;51.476;5.700;2024-01-30T03:43:57;6.80;99.90
58582;DHT22;44361;51.476;5.700;2024-01-30T03:46:23;6.80;99.90
58582;DHT22;44361;51.476;5.700;2024-01-30T03:48:49;6.80;99.90
58582;DHT22;44361;51.476;5.700;2024-01-30T03:51:15;6.80;99.90
58582;DHT22;44361;51.476;5.700;2024-01-30T03:53:44;6.80;99.90
58582;DHT22;44361;51.476;5.700;2024-01-30T03:56:12;6.80;99.90
58582;DHT22;44361;51.476;5.700;2024-01-30T03:58:39;6.80;99.90
58582;DHT22;44361;51.476;5.700;2024-01-30T04:01:04;6.80;99.90
58582;DHT22;44361;51.476;5.700;2024-01-30T04:03:30;6.90;99.90
58582;DHT22;44361;51.476;5.700;2024-01-30T04:05:55;6.90;99.90
58582;DHT22;44361;51.476;5.700;2024-01-30T04:08:21;7.00;99.90
58582;DHT22;44361;51.476;5.700;2024-01-30T04:10:47;7.10;99.90
58582;DHT22;44361;51.476;5.700;2024-01-30T04:13:12;7.10;99.90
58582;DHT22;44361;51.476;5.700;2024-01-30T04:15:39;7.30;99.90
58582;DHT22;44361;51.476;5.700;2024-01-30T04:18:04;7.30;99.90
58582;DHT22;44361;51.476;5.700;2024-01-30T04:20:30;7.30;99.90
58582;DHT22;44361;51.476;5.700;2024-01-30T04:22:56;7.40;99.90
58582;DHT22;44361;51.476;5.700;2024-01-30T04:25:21;7.30;99.90
58582;DHT22;44361;51.476;5.700;2024-01-30T04:27:47;7.40;99.90
58582;DHT22;44361;51.476;5.700;2024-01-30T04:30:13;7.40;99.90
58582;DHT22;44361;51.476;5.700;2024-01-30T04:32:39;7.30;99.90
58582;DHT22;44361;51.476;5.700;2024-01-30T04:35:04;7.30;99.90
58582;DHT22;44361;51.476;5.700;2024-01-30T04:37:30;7.30;99.90
58582;DHT22;44361;51.476;5.700;2024-01-30T04:39:56;7.30;99.90
58582;DHT22;44361;51.476;5.700;2024-01-30T04:42:22;7.30;99.90
58582;DHT22;44361;51.476;5.700;2024-01-30T04:44:47;7.30;99.90
58582;DHT22;44361;51.476;5.700;2024-01-30T04:47:13;7.40;99.90
58582;DHT22;44361;51.476;5.700;2024-01-30T04:49:39;7.40;99.90
58582;DHT22;44361;51.476;5.700;2024-01-30T04:52:08;7.30;99.90
58582;DHT22;44361;51.476;5.700;2024-01-30T04:54:35;7.30;99.90
58582;DHT22;44361;51.476;5.700;2024-01-30T04:57:01;7.30;99.90
58582;DHT22;44361;51.476;5.700;2024-01-30T04:59:27;7.30;99.90
58582;DHT22;44361;51.476;5.700;2024-01-30T05:01:53;7.30;99.90
58582;DHT22;44361;51.476;5.700;2024-01-30T05:04:18;7.40;99.90
58582;DHT22;44361;51.476;5.700;2024-01-30T05:06:45;7.40;99.90
58582;DHT22;44361;51.476;5.700;2024-01-30T05:09:11;7.40;99.90
58582;DHT22;44361;51.476;5.700;2024-01-30T05:11:39;7.40;99.90
58582;DHT22;44361;51.476;5.700;2024-01-30T05:14:06;7.40;99.90
58582;DHT22;44361;51.476;5.700;2024-01-30T05:16:31;7.40;99.90
58582;DHT22;44361;51.476;5.700;2024-01-30T05:18:57;7.40;99.90
58582;DHT22;44361;51.476;5.700;2024-01-30T05:21:23;7.50;99.90
58582;DHT22;44361;51.476;5.700;2024-01-30T05:23:49;7.60;99.90
58582;DHT22;44361;51.476;5.700;2024-01-30T05:26:14;7.60;99.90
58582;DHT22;44361;51.476;5.700;2024-01-30T05:28:40;7.60;99.90
58582;DHT22;44361;51.476;5.700;2024-01-30T05:31:05;7.70;99.90
58582;DHT22;44361;51.476;5.700;2024-01-30T05:33:31;7.80;99.90
58582;DHT22;44361;51.476;5.700;2024-01-30T05:35:57;7.70;99.90
58582;DHT22;44361;51.476;5.700;2024-01-30T05:38:22;7.80;99.90
58582;DHT22;44361;51.476;5.700;2024-01-30T05:40:48;7.80;99.90
58582;DHT22;44361;51.476;5.700;2024-01-30T05:43:13;7.80;99.90
58582;DHT22;44361;51.476;5.700;2024-01-30T05:45:39;7.90;99.90
58582;DHT22;44361;51.476;5.700;2024-01-30T05:48:05;7.90;99.90
58582;DHT22;44361;51.476;5.700;2024-01-30T05:50:30;7.90;99.90
58582;DHT22;44361;51.476;5.700;2024-01-30T05:52:56;7.90;99.90
58582;DHT22;44361;51.476;5.700;2024-01-30T05:55:22;7.90;99.90
58582;DHT22;44361;51.476;5.700;2024-01-30T05:57:47;7.90;99.90
58582;DHT22;44361;51.476;5.700;2024-01-30T06:00:13;7.90;99.90
58582;DHT22;44361;51.476;5.700;2024-01-30T06:02:39;7.90;99.90
58582;DHT22;44361;51.476;5.700;2024-01-30T06:05:05;7.90;99.90
58582;DHT22;44361;51.476;5.700;2024-01-30T06:07:31;7.90;99.90
58582;DHT22;44361;51.476;5.700;2024-01-30T06:09:57;7.90;99.90
58582;DHT22;44361;51.476;5.700;2024-01-30T06:12:22;8.00;99.90
58582;DHT22;44361;51.476;5.700;2024-01-30T06:14:48;7.90;99.90
58582;DHT22;44361;51.476;5.700;2024-01-30T06:17:14;7.80;99.90
58582;DHT22;44361;51.476;5.700;2024-01-30T06:19:39;7.80;99.90
58582;DHT22;44361;51.476;5.700;2024-01-30T06:22:05;7.90;99.90
58582;DHT22;44361;51.476;5.700;2024-01-30T06:24:31;7.90;99.90
58582;DHT22;44361;51.476;5.700;2024-01-30T06:26:56;7.90;99.90
58582;DHT22;44361;51.476;5.700;2024-01-30T06:29:22;7.90;99.90
58582;DHT22;44361;51.476;5.700;2024-01-30T06:31:50;7.90;99.90
58582;DHT22;44361;51.476;5.700;2024-01-30T06:34:15;7.90;99.90
58582;DHT22;44361;51.476;5.700;2024-01-30T06:36:41;7.90;99.90
58582;DHT22;44361;51.476;5.700;2024-01-30T06:39:06;7.90;99.90
58582;DHT22;44361;51.476;5.700;2024-01-30T06:41:32;7.90;99.90
58582;DHT22;44361;51.476;5.700;2024-01-30T06:43:58;7.90;99.90
58582;DHT22;44361;51.476;5.700;2024-01-30T06:46:23;7.90;99.90
58582;DHT22;44361;51.476;5.700;2024-01-30T06:48:49;7.90;99.90
58582;DHT22;44361;51.476;5.700;2024-01-30T06:51:16;7.90;99.90
58582;DHT22;44361;51.476;5.700;2024-01-30T06:53:41;7.90;99.90
58582;DHT22;44361;51.476;5.700;2024-01-30T06:56:08;7.90;99.90
58582;DHT22;44361;51.476;5.700;2024-01-30T06:58:33;7.90;99.90
58582;DHT22;44361;51.476;5.700;2024-01-30T07:00:59;7.90;99.90
58582;DHT22;44361;51.476;5.700;2024-01-30T07:03:24;8.00;99.90
58582;DHT22;44361;51.476;5.700;2024-01-30T07:05:50;8.00;99.90
58582;DHT22;44361;51.476;5.700;2024-01-30T07:08:16;8.10;99.90
58582;DHT22;44361;51.476;5.700;2024-01-30T07:10:45;8.20;99.90
58582;DHT22;44361;51.476;5.700;2024-01-30T07:13:11;8.20;99.90
58582;DHT22;44361;51.476;5.700;2024-01-30T07:15:36;8.30;99.90
58582;DHT22;44361;51.476;5.700;2024-01-30T07:18:03;8.40;99.90
58582;DHT22;44361;51.476;5.700;2024-01-30T07:20:30;8.30;99.90
58582;DHT22;44361;51.476;5.700;2024-01-30T07:22:58;8.40;99.90
58582;DHT22;44361;51.476;5.700;2024-01-30T07:25:23;8.40;99.90
58582;DHT22;44361;51.476;5.700;2024-01-30T07:27:52;8.50;99.90
58582;DHT22;44361;51.476;5.700;2024-01-30T07:30:18;8.60;99.90
58582;DHT22;44361;51.476;5.700;2024-01-30T07:32:44;8.80;99.90
58582;DHT22;44361;51.476;5.700;2024-01-30T07:35:09;8.90;99.90
58582;DHT22;44361;51.476;5.700;2024-01-30T07:37:35;8.90;99.90
58582;DHT22;44361;51.476;5.700;2024-01-30T07:40:01;8.90;99.90
58582;DHT22;44361;51.476;5.700;2024-01-30T07:42:27;8.90;99.90
58582;DHT22;44361;51.476;5.700;2024-01-30T07:44:53;8.90;99.90
58582;DHT22;44361;51.476;5.700;2024-01-30T07:47:18;9.00;99.90
58582;DHT22;44361;51.476;5.700;2024-01-30T07:49:44;9.10;99.90
58582;DHT22;44361;51.476;5.700;2024-01-30T07:52:09;9.10;99.90
58582;DHT22;44361;51.476;5.700;2024-01-30T07:54:54;9.10;99.90
58582;DHT22;44361;51.476;5.700;2024-01-30T07:57:20;9.10;99.90
58582;DHT22;44361;51.476;5.700;2024-01-30T07:59:46;9.10;99.90
58582;DHT22;44361;51.476;5.700;2024-01-30T08:02:12;9.20;99.90
58582;DHT22;44361;51.476;5.700;2024-01-30T08:04:38;9.20;99.90
58582;DHT22;44361;51.476;5.700;2024-01-30T08:07:04;9.20;99.90
58582;DHT22;44361;51.476;5.700;2024-01-30T08:09:30;9.30;99.90
58582;DHT22;44361;51.476;5.700;2024-01-30T08:11:55;9.40;99.90
58582;DHT22;44361;51.476;5.700;2024-01-30T08:14:21;9.40;99.90
58582;DHT22;44361;51.476;5.700;2024-01-30T08:16:46;9.40;99.90
58582;DHT22;44361;51.476;5.700;2024-01-30T08:19:12;9.50;99.90
58582;DHT22;44361;51.476;5.700;2024-01-30T08:21:37;9.60;99.90
58582;DHT22;44361;51.476;5.700;2024-01-30T08:24:04;9.60;99.90
58582;DHT22;44361;51.476;5.700;2024-01-30T08:26:30;9.70;99.90
58582;DHT22;44361;51.476;5.700;2024-01-30T08:28:56;9.70;99.90
58582;DHT22;44361;51.476;5.700;2024-01-30T08:31:21;9.70;99.90
58582;DHT22;44361;51.476;5.700;2024-01-30T08:33:47;9.80;99.90
58582;DHT22;44361;51.476;5.700;2024-01-30T08:36:12;9.80;99.90
58582;DHT22;44361;51.476;5.700;2024-01-30T08:38:38;9.70;99.90
58582;DHT22;44361;51.476;5.700;2024-01-30T08:41:04;9.70;99.90
58582;DHT22;44361;51.476;5.700;2024-01-30T08:43:30;9.80;99.90
58582;DHT22;44361;51.476;5.700;2024-01-30T08:46:02;9.80;99.90
58582;DHT22;44361;51.476;5.700;2024-01-30T08:48:27;9.90;99.90
58582;DHT22;44361;51.476;5.700;2024-01-30T08:50:53;10.00;99.90
58582;DHT22;44361;51.476;5.700;2024-01-30T08:53:19;10.00;99.90
58582;DHT22;44361;51.476;5.700;2024-01-30T08:55:45;10.00;99.90
58582;DHT22;44361;51.476;5.700;2024-01-30T08:58:10;10.10;99.90
58582;DHT22;44361;51.476;5.700;2024-01-30T09:00:36;10.10;99.90
58582;DHT22;44361;51.476;5.700;2024-01-30T09:03:03;10.20;99.90
58582;DHT22;44361;51.476;5.700;2024-01-30T09:05:28;10.20;99.90
58582;DHT22;44361;51.476;5.700;2024-01-30T09:07:54;10.30;99.90
58582;DHT22;44361;51.476;5.700;2024-01-30T09:10:19;10.30;99.90
58582;DHT22;44361;51.476;5.700;2024-01-30T09:12:46;10.30;99.90
58582;DHT22;44361;51.476;5.700;2024-01-30T09:15:12;10.30;99.90
58582;DHT22;44361;51.476;5.700;2024-01-30T09:17:38;10.40;99.90
58582;DHT22;44361;51.476;5.700;2024-01-30T09:20:04;10.50;99.90
58582;DHT22;44361;51.476;5.700;2024-01-30T09:22:30;10.50;99.90
58582;DHT22;44361;51.476;5.700;2024-01-30T09:24:55;10.50;99.90
58582;DHT22;44361;51.476;5.700;2024-01-30T09:27:21;10.60;99.90
58582;DHT22;44361;51.476;5.700;2024-01-30T09:29:46;10.70;99.90
58582;DHT22;44361;51.476;5.700;2024-01-30T09:32:12;10.70;99.90
58582;DHT22;44361;51.476;5.700;2024-01-30T09:34:37;10.70;99.90
58582;DHT22;44361;51.476;5.700;2024-01-30T09:37:04;10.80;99.90
58582;DHT22;44361;51.476;5.700;2024-01-30T09:39:30;10.80;99.90
58582;DHT22;44361;51.476;5.700;2024-01-30T09:42:04;10.80;99.90
58582;DHT22;44361;51.476;5.700;2024-01-30T09:44:30;10.80;99.90
58582;DHT22;44361;51.476;5.700;2024-01-30T09:46:56;10.80;99.90
58582;DHT22;44361;51.476;5.700;2024-01-30T09:49:24;10.80;99.90
58582;DHT22;44361;51.476;5.700;2024-01-30T09:51:51;10.80;99.90
58582;DHT22;44361;51.476;5.700;2024-01-30T09:54:19;10.80;99.90
58582;DHT22;44361;51.476;5.700;2024-01-30T09:56:44;10.80;99.90
58582;DHT22;44361;51.476;5.700;2024-01-30T09:59:10;10.90;99.90
58582;DHT22;44361;51.476;5.700;2024-01-30T10:01:36;10.90;99.90
58582;DHT22;44361;51.476;5.700;2024-01-30T10:04:02;10.90;99.90
58582;DHT22;44361;51.476;5.700;2024-01-30T10:06:27;10.90;99.90
58582;DHT22;44361;51.476;5.700;2024-01-30T10:08:53;10.90;99.90
58582;DHT22;44361;51.476;5.700;2024-01-30T10:11:19;11.00;99.90
58582;DHT22;44361;51.476;5.700;2024-01-30T10:13:45;11.00;99.90
58582;DHT22;44361;51.476;5.700;2024-01-30T10:16:14;11.00;99.90
58582;DHT22;44361;51.476;5.700;2024-01-30T10:18:41;11.20;99.90
58582;DHT22;44361;51.476;5.700;2024-01-30T10:21:07;11.30;99.90
58582;DHT22;44361;51.476;5.700;2024-01-30T10:23:33;11.60;99.90
58582;DHT22;44361;51.476;5.700;2024-01-30T10:25:59;11.70;99.90
58582;DHT22;44361;51.476;5.700;2024-01-30T10:28:27;11.80;99.90
58582;DHT22;44361;51.476;5.700;2024-01-30T10:31:01;12.00;99.90
58582;DHT22;44361;51.476;5.700;2024-01-30T10:33:31;12.00;99.90
58582;DHT22;44361;51.476;5.700;2024-01-30T10:36:02;11.90;99.90
58582;DHT22;44361;51.476;5.700;2024-01-30T10:38:29;11.80;99.90
58582;DHT22;44361;51.476;5.700;2024-01-30T10:41:00;11.80;99.90
58582;DHT22;44361;51.476;5.700;2024-01-30T10:43:39;11.80;99.90
58582;DHT22;44361;51.476;5.700;2024-01-30T10:46:10;11.70;99.90
58582;DHT22;44361;51.476;5.700;2024-01-30T10:48:42;11.60;99.90
58582;DHT22;44361;51.476;5.700;2024-01-30T10:51:10;11.60;99.90
58582;DHT22;44361;51.476;5.700;2024-01-30T10:53:36;11.70;99.90
58582;DHT22;44361;51.476;5.700;2024-01-30T10:56:03;11.70;99.90
58582;DHT22;44361;51.476;5.700;2024-01-30T10:58:29;11.70;99.90
58582;DHT22;44361;51.476;5.700;2024-01-30T11:00:55;11.70;99.90
58582;DHT22;44361;51.476;5.700;2024-01-30T11:03:22;11.80;99.90
58582;DHT22;44361;51.476;5.700;2024-01-30T11:05:52;11.90;99.90
58582;DHT22;44361;51.476;5.700;2024-01-30T11:08:24;11.90;99.90
58582;DHT22;44361;51.476;5.700;2024-01-30T11:10:56;11.80;99.90
58582;DHT22;44361;51.476;5.700;2024-01-30T11:13:29;11.70;99.90
58582;DHT22;44361;51.476;5.700;2024-01-30T11:15:55;11.80;99.90
58582;DHT22;44361;51.476;5.700;2024-01-30T11:18:25;11.90;99.90
58582;DHT22;44361;51.476;5.700;2024-01-30T11:20:51;12.10;99.90
58582;DHT22;44361;51.476;5.700;2024-01-30T11:23:16;12.30;99.90
58582;DHT22;44361;51.476;5.700;2024-01-30T11:25:43;12.30;99.90
58582;DHT22;44361;51.476;5.700;2024-01-30T11:28:14;12.60;99.90
58582;DHT22;44361;51.476;5.700;2024-01-30T11:30:44;12.70;99.90
58582;DHT22;44361;51.476;5.700;2024-01-30T11:33:11;12.70;99.90
58582;DHT22;44361;51.476;5.700;2024-01-30T11:38:08;12.30;99.90
58582;DHT22;44361;51.476;5.700;2024-01-30T11:40:35;12.20;99.90
58582;DHT22;44361;51.476;5.700;2024-01-30T11:43:03;12.10;99.90
58582;DHT22;44361;51.476;5.700;2024-01-30T11:45:30;12.10;99.90
58582;DHT22;44361;51.476;5.700;2024-01-30T11:47:56;12.20;99.90
58582;DHT22;44361;51.476;5.700;2024-01-30T11:50:23;12.30;99.90
58582;DHT22;44361;51.476;5.700;2024-01-30T11:52:50;12.40;99.90
58582;DHT22;44361;51.476;5.700;2024-01-30T11:55:15;12.50;99.90
58582;DHT22;44361;51.476;5.700;2024-01-30T11:57:41;12.60;99.90
58582;DHT22;44361;51.476;5.700;2024-01-30T12:00:16;12.60;99.90
58582;DHT22;44361;51.476;5.700;2024-01-30T12:02:44;12.60;99.90
58582;DHT22;44361;51.476;5.700;2024-01-30T12:05:14;12.70;99.90
58582;DHT22;44361;51.476;5.700;2024-01-30T12:07:44;12.70;99.90
58582;DHT22;44361;51.476;5.700;2024-01-30T12:10:10;12.80;99.90
58582;DHT22;44361;51.476;5.700;2024-01-30T12:12:36;12.80;99.90
58582;DHT22;44361;51.476;5.700;2024-01-30T12:15:02;12.80;99.90
58582;DHT22;44361;51.476;5.700;2024-01-30T12:17:30;12.70;99.90
58582;DHT22;44361;51.476;5.700;2024-01-30T12:22:33;12.80;99.90
58582;DHT22;44361;51.476;5.700;2024-01-30T12:24:59;12.80;99.90
58582;DHT22;44361;51.476;5.700;2024-01-30T12:27:25;12.70;99.90
58582;DHT22;44361;51.476;5.700;2024-01-30T12:29:56;12.80;99.90
58582;DHT22;44361;51.476;5.700;2024-01-30T12:32:23;12.70;99.90
58582;DHT22;44361;51.476;5.700;2024-01-30T12:34:48;12.60;99.90
58582;DHT22;44361;51.476;5.700;2024-01-30T12:37:14;12.50;99.90
58582;DHT22;44361;51.476;5.700;2024-01-30T12:39:44;12.50;99.90
58582;DHT22;44361;51.476;5.700;2024-01-30T12:42:09;12.60;99.90
58582;DHT22;44361;51.476;5.700;2024-01-30T12:44:35;12.80;99.90
58582;DHT22;44361;51.476;5.700;2024-01-30T12:47:03;13.00;99.90
58582;DHT22;44361;51.476;5.700;2024-01-30T12:49:28;12.70;99.90
58582;DHT22;44361;51.476;5.700;2024-01-30T12:51:54;12.40;99.90
58582;DHT22;44361;51.476;5.700;2024-01-30T12:54:20;12.20;99.90
58582;DHT22;44361;51.476;5.700;2024-01-30T12:56:46;12.20;99.90
58582;DHT22;44361;51.476;5.700;2024-01-30T12:59:11;12.10;99.90
58582;DHT22;44361;51.476;5.700;2024-01-30T13:01:37;11.90;99.90
58582;DHT22;44361;51.476;5.700;2024-01-30T13:04:03;11.90;99.90
58582;DHT22;44361;51.476;5.700;2024-01-30T13:06:29;11.90;99.90
58582;DHT22;44361;51.476;5.700;2024-01-30T13:08:54;11.90;99.90
58582;DHT22;44361;51.476;5.700;2024-01-30T13:11:20;12.00;99.90
58582;DHT22;44361;51.476;5.700;2024-01-30T13:13:46;12.00;99.90
58582;DHT22;44361;51.476;5.700;2024-01-30T13:16:11;12.20;99.90
58582;DHT22;44361;51.476;5.700;2024-01-30T13:18:37;12.30;99.90
58582;DHT22;44361;51.476;5.700;2024-01-30T13:21:02;12.40;99.90
58582;DHT22;44361;51.476;5.700;2024-01-30T13:23:28;12.30;99.90
58582;DHT22;44361;51.476;5.700;2024-01-30T13:25:53;12.30;99.90
58582;DHT22;44361;51.476;5.700;2024-01-30T13:28:23;12.20;98.50
58582;DHT22;44361;51.476;5.700;2024-01-30T13:30:48;11.80;97.50
58582;DHT22;44361;51.476;5.700;2024-01-30T13:33:14;11.50;97.60
58582;DHT22;44361;51.476;5.700;2024-01-30T13:35:39;11.50;98.10
58582;DHT22;44361;51.476;5.700;2024-01-30T13:38:05;11.30;98.10
58582;DHT22;44361;51.476;5.700;2024-01-30T13:40:30;11.30;98.60
58582;DHT22;44361;51.476;5.700;2024-01-30T13:42:56;11.20;98.30
58582;DHT22;44361;51.476;5.700;2024-01-30T13:45:21;11.20;98.10
58582;DHT22;44361;51.476;5.700;2024-01-30T13:47:47;11.20;97.70
58582;DHT22;44361;51.476;5.700;2024-01-30T13:50:13;11.40;98.20
58582;DHT22;44361;51.476;5.700;2024-01-30T13:52:41;11.70;97.70
58582;DHT22;44361;51.476;5.700;2024-01-30T13:55:06;11.80;97.10
58582;DHT22;44361;51.476;5.700;2024-01-30T13:57:32;12.00;96.50
58582;DHT22;44361;51.476;5.700;2024-01-30T14:00:01;12.20;96.50
58582;DHT22;44361;51.476;5.700;2024-01-30T14:02:27;12.30;95.90
58582;DHT22;44361;51.476;5.700;2024-01-30T14:04:52;12.20;95.60
58582;DHT22;44361;51.476;5.700;2024-01-30T14:07:18;12.10;95.50
58582;DHT22;44361;51.476;5.700;2024-01-30T14:09:44;12.10;96.10
58582;DHT22;44361;51.476;5.700;2024-01-30T14:12:09;11.90;96.00
58582;DHT22;44361;51.476;5.700;2024-01-30T14:14:35;11.90;95.70
58582;DHT22;44361;51.476;5.700;2024-01-30T14:17:01;11.80;96.00
58582;DHT22;44361;51.476;5.700;2024-01-30T14:19:27;11.70;96.10
58582;DHT22;44361;51.476;5.700;2024-01-30T14:21:53;11.60;96.00
58582;DHT22;44361;51.476;5.700;2024-01-30T14:24:18;11.60;96.10
58582;DHT22;44361;51.476;5.700;2024-01-30T14:26:44;11.50;96.40
58582;DHT22;44361;51.476;5.700;2024-01-30T14:29:09;11.50;96.60
58582;DHT22;44361;51.476;5.700;2024-01-30T14:31:35;11.50;96.50
58582;DHT22;44361;51.476;5.700;2024-01-30T14:34:01;11.50;96.60
58582;DHT22;44361;51.476;5.700;2024-01-30T14:36:27;11.40;96.70
58582;DHT22;44361;51.476;5.700;2024-01-30T14:38:54;11.30;96.90
58582;DHT22;44361;51.476;5.700;2024-01-30T14:41:20;11.20;97.30
58582;DHT22;44361;51.476;5.700;2024-01-30T14:43:46;11.20;97.40
58582;DHT22;44361;51.476;5.700;2024-01-30T14:46:11;11.20;97.20
58582;DHT22;44361;51.476;5.700;2024-01-30T14:48:37;11.20;97.40
58582;DHT22;44361;51.476;5.700;2024-01-30T14:51:02;11.10;97.50
58582;DHT22;44361;51.476;5.700;2024-01-30T14:53:28;11.10;97.80
58582;DHT22;44361;51.476;5.700;2024-01-30T14:55:54;11.00;97.50
58582;DHT22;44361;51.476;5.700;2024-01-30T14:58:19;11.00;97.90
58582;DHT22;44361;51.476;5.700;2024-01-30T15:00:45;11.00;97.90
58582;DHT22;44361;51.476;5.700;2024-01-30T15:03:10;11.00;98.10
58582;DHT22;44361;51.476;5.700;2024-01-30T15:05:36;10.90;98.20
58582;DHT22;44361;51.476;5.700;2024-01-30T15:08:01;10.90;98.70
58582;DHT22;44361;51.476;5.700;2024-01-30T15:10:27;10.80;99.90
58582;DHT22;44361;51.476;5.700;2024-01-30T15:12:53;10.70;99.90
58582;DHT22;44361;51.476;5.700;2024-01-30T15:15:18;10.50;99.90
58582;DHT22;44361;51.476;5.700;2024-01-30T15:17:44;10.40;99.90
58582;DHT22;44361;51.476;5.700;2024-01-30T15:20:09;10.40;99.90
58582;DHT22;44361;51.476;5.700;2024-01-30T15:22:35;10.30;99.90
58582;DHT22;44361;51.476;5.700;2024-01-30T15:25:01;10.20;99.90
58582;DHT22;44361;51.476;5.700;2024-01-30T15:27:26;10.10;99.90
58582;DHT22;44361;51.476;5.700;2024-01-30T15:29:52;10.10;99.90
58582;DHT22;44361;51.476;5.700;2024-01-30T15:32:17;10.00;99.90
58582;DHT22;44361;51.476;5.700;2024-01-30T15:34:43;9.90;99.90
58582;DHT22;44361;51.476;5.700;2024-01-30T15:37:08;9.80;99.90